Mt Hood
Skibowl Ski Area - Government Camp
Latest observation 08/31 19:00 PDT
| Time (PDT) | Temp °F 5010' | Temp °F 3660' | RH % 5010' | RH % 3660' | Min mph 5010' | Spd mph 5010' | Gust mph 5010' | Dir ° 5010' | Pcp1 in 3660' | PcpSum in 3660' | SnoHt in 5010' |
|---|---|---|---|---|---|---|---|---|---|---|---|
| 08/31 19:00 | – | 67 | – | 47 | – | – | – | – | 0.00 | 0.04 | – |
| 08/31 18:00 | – | 71 | – | 39 | – | – | – | – | 0.00 | 0.04 | – |
| 08/31 17:00 | – | 74 | – | 35 | – | – | – | – | 0.00 | 0.04 | – |
| 08/31 16:00 | – | 75 | – | 26 | – | – | – | – | 0.00 | 0.04 | – |
| 08/31 15:00 | – | 75 | – | 25 | – | – | – | – | 0.00 | 0.04 | – |
| 08/31 14:00 | – | 74 | – | 23 | – | – | – | – | 0.00 | 0.04 | – |
| 08/31 13:00 | – | 73 | – | 23 | – | – | – | – | 0.00 | 0.04 | – |
| 08/31 12:00 | – | 71 | – | 25 | – | – | – | – | 0.00 | 0.04 | – |
| 08/31 11:00 | – | 66 | – | 43 | – | – | – | – | 0.00 | 0.04 | – |
| 08/31 10:00 | – | 61 | – | 47 | – | – | – | – | 0.00 | 0.04 | – |
| 08/31 09:00 | – | 54 | – | 64 | – | – | – | – | 0.00 | 0.04 | – |
| 08/31 08:00 | – | 55 | – | 53 | – | – | – | – | 0.00 | 0.04 | – |
| 08/31 07:00 | – | 51 | – | 66 | – | – | – | – | 0.00 | 0.04 | – |
| 08/31 06:00 | – | 48 | – | 77 | – | – | – | – | 0.00 | 0.04 | – |
| 08/31 05:00 | – | 48 | – | 77 | – | – | – | – | 0.00 | 0.04 | – |
| 08/31 04:00 | – | 47 | – | 80 | – | – | – | – | 0.00 | 0.04 | – |
| 08/31 03:00 | – | 47 | – | 83 | – | – | – | – | 0.00 | 0.04 | – |
| 08/31 02:00 | – | 46 | – | 85 | – | – | – | – | 0.00 | 0.04 | – |
| 08/31 01:00 | – | 47 | – | 84 | – | – | – | – | 0.00 | 0.04 | – |
| 08/31 00:00 | – | 46 | – | 86 | – | – | – | – | 0.00 | 0.04 | – |
| 08/30 23:00 | – | 45 | – | 87 | – | – | – | – | 0.00 | 0.04 | – |
| 08/30 22:00 | – | 46 | – | 85 | – | – | – | – | 0.00 | 0.04 | – |
| 08/30 21:00 | – | 48 | – | 82 | – | – | – | – | 0.00 | 0.04 | – |
| 08/30 20:00 | – | 52 | – | 75 | – | – | – | – | 0.00 | 0.04 | – |
| 08/30 19:00 | – | 57 | – | 63 | – | – | – | – | 0.00 | 0.04 | – |
| 08/30 18:00 | – | 59 | – | 56 | – | – | – | – | 0.00 | 0.04 | – |
| 08/30 17:00 | – | 60 | – | 54 | – | – | – | – | 0.00 | 0.04 | – |
| 08/30 16:00 | – | 60 | – | 51 | – | – | – | – | 0.00 | 0.04 | – |
| 08/30 15:00 | – | 60 | – | 52 | – | – | – | – | 0.00 | 0.04 | – |
| 08/30 14:00 | – | 59 | – | 54 | – | – | – | – | 0.00 | 0.04 | – |
| 08/30 13:00 | – | 58 | – | 49 | – | – | – | – | 0.00 | 0.04 | – |
| 08/30 12:00 | – | 55 | – | 60 | – | – | – | – | 0.00 | 0.04 | – |
| 08/30 11:00 | – | 52 | – | 70 | – | – | – | – | 0.00 | 0.04 | – |
| 08/30 10:00 | – | 47 | – | 82 | – | – | – | – | 0.00 | 0.04 | – |
| 08/30 09:00 | – | 44 | – | 90 | – | – | – | – | 0.00 | 0.04 | – |
| 08/30 08:00 | – | 39 | – | 94 | – | – | – | – | 0.00 | 0.04 | – |
| 08/30 07:00 | – | 39 | – | 93 | – | – | – | – | 0.00 | 0.04 | – |
| 08/30 06:00 | – | 42 | – | 92 | – | – | – | – | 0.00 | 0.04 | – |
| 08/30 05:00 | – | 44 | – | 92 | – | – | – | – | 0.00 | 0.04 | – |
| 08/30 04:00 | – | 45 | – | 92 | – | – | – | – | 0.00 | 0.04 | – |
| 08/30 03:00 | – | 44 | – | 92 | – | – | – | – | 0.00 | 0.04 | – |
| 08/30 02:00 | – | 44 | – | 91 | – | – | – | – | 0.00 | 0.04 | – |
| 08/30 01:00 | – | 45 | – | 91 | – | – | – | – | 0.00 | 0.04 | – |
| 08/30 00:00 | – | 46 | – | 87 | – | – | – | – | 0.00 | 0.04 | – |
| 08/29 23:00 | – | 48 | – | 84 | – | – | – | – | 0.00 | 0.04 | – |
| 08/29 22:00 | – | 49 | – | 83 | – | – | – | – | 0.00 | 0.04 | – |
| 08/29 21:00 | – | 50 | – | 80 | – | – | – | – | 0.00 | 0.04 | – |
| 08/29 20:00 | – | 51 | – | 81 | – | – | – | – | 0.00 | 0.04 | – |
| 08/29 19:00 | – | 51 | – | 79 | – | – | – | – | 0.00 | 0.04 | – |
| 08/29 18:00 | – | 52 | – | 76 | – | – | – | – | 0.00 | 0.04 | – |
| 08/29 17:00 | – | 52 | – | 74 | – | – | – | – | 0.00 | 0.04 | – |
| 08/29 16:00 | – | 52 | – | 71 | – | – | – | – | 0.00 | 0.04 | – |
| 08/29 15:00 | – | 50 | – | 79 | – | – | – | – | 0.00 | 0.04 | – |
| 08/29 14:00 | – | 50 | – | 83 | – | – | – | – | 0.00 | 0.04 | – |
| 08/29 13:00 | – | 49 | – | 83 | – | – | – | – | 0.00 | 0.04 | – |
| 08/29 12:00 | – | 48 | – | 86 | – | – | – | – | 0.00 | 0.04 | – |
| 08/29 11:00 | – | 47 | – | 88 | – | – | – | – | 0.00 | 0.04 | – |
| 08/29 10:00 | – | 46 | – | 93 | – | – | – | – | 0.00 | 0.04 | – |
| 08/29 09:00 | – | 45 | – | 95 | – | – | – | – | 0.02 | 0.04 | – |
| 08/29 08:00 | – | 45 | – | 94 | – | – | – | – | 0.02 | 0.02 | – |
| 08/29 07:00 | – | 46 | – | 89 | – | – | – | – | 0.00 | 0.00 | – |
| 08/29 06:00 | – | 46 | – | 87 | – | – | – | – | 0.00 | 0.00 | – |
| 08/29 05:00 | – | 46 | – | 89 | – | – | – | – | 0.00 | 0.00 | – |
| 08/29 04:00 | – | 47 | – | 86 | – | – | – | – | 0.00 | 0.00 | – |
| 08/29 03:00 | – | 47 | – | 85 | – | – | – | – | 0.00 | 0.00 | – |
| 08/29 02:00 | – | 48 | – | 84 | – | – | – | – | 0.00 | 0.00 | – |
| 08/29 01:00 | – | 49 | – | 79 | – | – | – | – | 0.00 | 0.00 | – |
| 08/29 00:00 | – | 49 | – | 83 | – | – | – | – | 0.00 | 0.00 | – |
| 08/28 23:00 | – | 51 | – | 83 | – | – | – | – | 0.00 | 0.00 | – |
| 08/28 22:00 | – | 51 | – | 84 | – | – | – | – | 0.00 | 0.00 | – |
| 08/28 21:00 | – | 52 | – | 80 | – | – | – | – | 0.00 | 0.00 | – |
| 08/28 20:00 | – | 56 | – | 73 | – | – | – | – | 0.00 | 0.00 | – |
| 08/28 19:00 | – | 57 | – | 68 | – | – | – | – | 0.00 | 0.00 | – |
| 08/28 18:00 | – | 60 | – | 64 | – | – | – | – | 0.00 | 0.00 | – |
| 08/28 17:00 | – | 61 | – | 61 | – | – | – | – | 0.00 | 0.00 | – |
| 08/28 16:00 | – | 61 | – | 63 | – | – | – | – | 0.00 | 0.00 | – |
| 08/28 15:00 | – | 61 | – | 62 | – | – | – | – | 0.00 | 0.00 | – |
| 08/28 14:00 | – | 61 | – | 64 | – | – | – | – | 0.00 | 0.00 | – |
| 08/28 13:00 | – | 61 | – | 65 | – | – | – | – | 0.00 | 0.00 | – |
| 08/28 12:00 | – | 60 | – | 61 | – | – | – | – | 0.00 | 0.00 | – |
| 08/28 11:00 | – | 57 | – | 71 | – | – | – | – | 0.00 | 0.00 | – |
| 08/28 10:00 | – | 54 | – | 82 | – | – | – | – | 0.00 | 0.00 | – |
| 08/28 09:00 | – | 49 | – | 96 | – | – | – | – | 0.00 | 0.00 | – |
| 08/28 08:00 | – | 44 | – | 94 | – | – | – | – | 0.00 | 0.00 | – |
| 08/28 07:00 | – | 44 | – | 94 | – | – | – | – | 0.00 | 0.00 | – |
| 08/28 06:00 | – | 44 | – | 94 | – | – | – | – | 0.00 | 0.00 | – |
| 08/28 05:00 | – | 44 | – | 94 | – | – | – | – | 0.00 | 0.00 | – |
| 08/28 04:00 | – | 46 | – | 93 | – | – | – | – | 0.00 | 0.00 | – |
| 08/28 03:00 | – | 48 | – | 92 | – | – | – | – | 0.00 | 0.00 | – |
| 08/28 02:00 | – | 49 | – | 91 | – | – | – | – | 0.00 | 0.00 | – |
| 08/28 01:00 | 47 | 50 | 92 | 90 | 0 | 0 | 0 | 147 | 0.00 | 0.00 | 8.1 |
| 08/28 00:00 | 48 | 49 | 90 | 90 | 0 | 0 | 0 | 155 | 0.00 | 0.00 | 8.3 |
| 08/27 23:00 | 49 | 49 | 92 | 87 | 0 | 0 | 0 | 169 | 0.00 | 0.00 | 8.3 |
| 08/27 22:00 | 49 | 52 | 88 | 82 | 0 | 0 | 0 | 181 | 0.00 | 0.00 | 8.1 |
| 08/27 21:00 | 50 | 53 | 81 | 79 | 0 | 0 | 0 | 185 | 0.00 | 0.00 | 8.1 |
| 08/27 20:00 | 51 | 57 | 78 | 69 | 0 | 0 | 0 | 183 | 0.00 | 0.00 | 8.1 |
| 08/27 19:00 | 53 | 59 | 73 | 64 | 0 | 0 | 0 | 181 | 0.00 | 0.00 | 7.7 |
| 08/27 18:00 | 57 | 62 | 63 | 57 | 0 | 0 | 0 | 183 | 0.00 | 0.00 | 7.6 |
| 08/27 17:00 | 59 | 63 | 56 | 54 | 0 | 0 | 0 | 189 | 0.00 | 0.00 | 7.5 |
| 08/27 16:00 | 60 | 63 | 55 | 53 | 0 | 0 | 0 | 195 | 0.00 | 0.00 | 7.3 |
| 08/27 15:00 | 61 | 62 | 54 | 55 | 0 | 0 | 0 | 197 | 0.00 | 0.00 | 7.4 |
| 08/27 14:00 | 61 | 61 | 60 | 64 | 0 | 0 | 0 | 195 | 0.00 | 0.00 | 7.6 |
| 08/27 13:00 | 59 | 59 | 65 | 72 | 0 | 0 | 0 | 194 | 0.00 | 0.00 | 8.0 |
| 08/27 12:00 | 58 | 58 | 71 | 78 | 0 | 0 | 0 | 195 | 0.00 | 0.00 | 7.4 |
| 08/27 11:00 | 57 | 57 | 73 | 81 | 0 | 0 | 0 | 198 | 0.00 | 0.00 | 7.5 |
| 08/27 10:00 | 55 | 55 | 82 | 91 | 0 | 0 | 0 | 192 | 0.00 | 0.00 | 8.1 |
| 08/27 09:00 | 54 | 55 | 85 | 88 | 0 | 0 | 0 | 177 | 0.00 | 0.00 | 8.6 |
| 08/27 08:00 | 53 | 54 | 88 | 91 | 0 | 0 | 0 | 150 | 0.00 | 0.00 | 8.7 |
| 08/27 07:00 | 52 | 54 | 92 | 90 | 0 | 0 | 0 | 150 | 0.00 | 0.00 | 8.7 |
| 08/27 06:00 | 52 | 54 | 94 | 90 | 0 | 0 | 0 | 154 | 0.00 | 0.00 | 8.8 |
| 08/27 05:00 | 53 | 54 | 93 | 90 | 0 | 0 | 0 | 158 | 0.00 | 0.00 | 8.6 |
| 08/27 04:00 | 53 | 54 | 90 | 90 | 0 | 0 | 0 | 165 | 0.00 | 0.00 | 8.6 |
| 08/27 03:00 | 53 | 53 | 90 | 90 | 0 | 0 | 0 | 167 | 0.00 | 0.00 | 8.5 |
| 08/27 02:00 | 53 | 53 | 87 | 88 | 0 | 0 | 0 | 173 | 0.00 | 0.00 | 8.5 |
| 08/27 01:00 | 54 | 54 | 84 | 85 | 0 | 0 | 0 | 175 | 0.00 | 0.00 | 8.4 |
| 08/27 00:00 | 54 | 55 | 84 | 83 | 0 | 0 | 0 | 179 | 0.00 | 0.00 | 8.4 |
| 08/26 23:00 | 54 | 56 | 82 | 80 | 0 | 0 | 0 | 181 | 0.00 | 0.00 | 8.1 |
| 08/26 22:00 | 55 | 58 | 79 | 75 | 0 | 0 | 0 | 182 | 0.00 | 0.00 | 8.4 |
| 08/26 21:00 | 56 | 60 | 73 | 71 | 0 | 0 | 0 | 180 | 0.00 | 0.00 | 8.2 |
| 08/26 20:00 | 57 | 62 | 69 | 65 | 0 | 0 | 9 | 178 | 0.00 | 0.00 | 8.1 |
| 08/26 19:00 | 60 | 64 | 64 | 61 | 0 | 0 | 0 | 186 | 0.00 | 0.00 | 8.1 |
| 08/26 18:00 | 64 | 65 | 56 | 58 | 0 | 0 | 0 | 186 | 0.00 | 0.00 | 7.5 |
| 08/26 17:00 | 65 | 66 | 54 | 57 | 0 | 0 | 0 | 187 | 0.00 | 0.00 | 7.2 |
| 08/26 16:00 | 68 | 68 | 51 | 55 | 0 | 0 | 0 | 193 | 0.00 | 0.00 | 7.1 |
| 08/26 15:00 | 68 | 68 | 49 | 56 | 0 | 0 | 0 | 185 | 0.00 | 0.00 | 7.2 |
| 08/26 14:00 | 69 | 68 | 46 | 51 | 0 | 0 | 0 | 186 | 0.00 | 0.00 | 6.9 |
| 08/26 13:00 | 68 | 67 | 45 | 52 | 0 | 0 | 0 | 190 | 0.00 | 0.00 | 7.1 |
| 08/26 12:00 | 69 | 67 | 39 | 47 | 0 | 0 | 0 | 194 | 0.00 | 0.00 | 6.9 |
| 08/26 11:00 | 68 | 65 | 39 | 49 | 0 | 0 | 0 | 187 | 0.00 | 0.00 | 7.2 |
| 08/26 10:00 | 67 | 58 | 42 | 70 | 0 | 0 | 0 | 163 | 0.00 | 0.00 | 7.7 |
| 08/26 09:00 | 61 | 51 | 42 | 80 | 0 | 0 | 0 | 163 | 0.00 | 0.00 | 7.4 |
| 08/26 08:00 | 62 | 47 | 38 | 74 | 0 | 0 | 0 | 172 | 0.00 | 0.00 | 7.9 |
| 08/26 07:00 | 57 | 46 | 41 | 71 | 0 | 0 | 0 | 166 | 0.00 | 0.00 | 7.9 |
| 08/26 06:00 | 60 | 46 | 42 | 73 | 0 | 1 | 8 | 152 | 0.00 | 0.00 | 7.9 |
| 08/26 05:00 | 58 | 47 | 41 | 74 | 0 | 0 | 0 | 159 | 0.00 | 0.00 | 7.6 |
| 08/26 04:00 | – | 48 | – | 76 | – | – | – | – | 0.00 | 0.00 | – |
| 08/26 03:00 | 61 | 49 | 34 | 77 | 0 | 0 | 5 | 152 | 0.00 | 0.00 | -7999.0 |
| 08/26 02:00 | – | 50 | – | 82 | – | – | – | – | 0.00 | 0.00 | – |
| 08/26 01:00 | 59 | 52 | 44 | 81 | 0 | 2 | 12 | 153 | 0.00 | 0.00 | 7.9 |
| 08/26 00:00 | 60 | 54 | 51 | 78 | 0 | 2 | 7 | 146 | 0.00 | 0.00 | 7.8 |
| 08/25 23:00 | 59 | 55 | 50 | 74 | 0 | 3 | 19 | 150 | 0.00 | 0.00 | -7999.0 |
| 08/25 22:00 | 60 | 58 | 56 | 70 | 0 | 0 | 10 | 145 | 0.00 | 0.00 | 8.3 |
| 08/25 21:00 | – | 61 | – | 63 | – | – | – | – | 0.00 | 0.00 | – |
| 08/25 20:00 | 62 | 67 | 58 | 55 | 2 | 6 | 52 | 161 | 0.00 | 0.00 | 7.8 |
| 08/25 19:00 | 66 | 70 | 56 | 51 | 0 | 5 | 27 | 159 | 0.00 | 0.00 | 7.7 |
| 08/25 18:00 | 69 | 72 | 52 | 51 | 0 | 2 | 16 | 156 | 0.00 | 0.00 | 7.3 |
| 08/25 17:00 | 72 | 72 | 49 | 53 | 0 | 0 | 0 | 149 | 0.00 | 0.00 | -7999.0 |
| 08/25 16:00 | 73 | 73 | 41 | 47 | 0 | 0 | 0 | 155 | 0.00 | 0.00 | 7.3 |
| 08/25 15:00 | – | 73 | – | 46 | – | – | – | – | 0.00 | 0.00 | – |
| 08/25 14:00 | – | 74 | – | 45 | – | – | – | – | 0.00 | 0.00 | – |
| 08/25 13:00 | 75 | 74 | 46 | 42 | 0 | 1 | 8 | 166 | 0.00 | 0.00 | 6.4 |
| 08/25 12:00 | – | 76 | – | 35 | – | – | – | – | 0.00 | 0.00 | – |
| 08/25 11:00 | 73 | 73 | 38 | 44 | 0 | 7 | 26 | 163 | 0.00 | 0.00 | 7.6 |
| 08/25 10:00 | – | 68 | – | 50 | – | – | – | – | 0.00 | 0.00 | – |
| 08/25 09:00 | 66 | 60 | 44 | 68 | 3 | 10 | 37 | 165 | 0.00 | 0.00 | 7.7 |
| 08/25 08:00 | – | 55 | – | 72 | – | – | – | – | 0.00 | 0.00 | – |
| 08/25 07:00 | 66 | 53 | 42 | 68 | 0 | 12 | 32 | 148 | 0.00 | 0.00 | 7.7 |
| 08/25 06:00 | 67 | 53 | 42 | 67 | 0 | 11 | 63 | 150 | 0.00 | 0.00 | 7.6 |
| 08/25 05:00 | 65 | 54 | 41 | 65 | 4 | 12 | 61 | 149 | 0.00 | 0.00 | -7999.0 |
| 08/25 04:00 | 68 | 56 | 42 | 65 | 4 | 11 | 49 | 156 | 0.00 | 0.00 | -7999.0 |
| 08/25 03:00 | 65 | 56 | 45 | 65 | 3 | 9 | 36 | 150 | 0.00 | 0.00 | 7.8 |
| 08/25 02:00 | 68 | 58 | 35 | 64 | 7 | 20 | 69 | 160 | 0.00 | 0.00 | 7.5 |
| 08/25 01:00 | 63 | 60 | 44 | 58 | 11 | 22 | 93 | 156 | 0.00 | 0.00 | 8.0 |
| 08/25 00:00 | 62 | 60 | 51 | 62 | 5 | 16 | 74 | 157 | 0.00 | 0.00 | 8.2 |
| 08/24 23:00 | 66 | 61 | 48 | 57 | 0 | 14 | 53 | 157 | 0.00 | 0.00 | 8.1 |
| 08/24 22:00 | 66 | 63 | 45 | 55 | 8 | 17 | 51 | 160 | 0.00 | 0.00 | 8.0 |
| 08/24 21:00 | 68 | 65 | 43 | 56 | 0 | 15 | 44 | 177 | 0.00 | 0.00 | 7.8 |
| 08/24 20:00 | 68 | 66 | 40 | 57 | 2 | 10 | 92 | 178 | 0.00 | 0.00 | 7.3 |

